Eylar, Illinois
Current Conditions -  °F | °C
As of 1:15 PM on Thursday 18 Dec 2014 (Local Time) from KPNT Reporting Station
Broken Clouds Broken Clouds  
Wind Chill: 22°   Ceiling: 1400
Heat Index: 27°   Visibility: 10mi
Dew Point: 22°   Wind: 5mph
Humidity: 81%   Direction: 310°NW
Pressure: 30.25"   Gusts: NA
Location:  40.8821°N, 88.4137°W
Report Text: KPNT 181915Z AUTO 31004KT 10SM BKN014 M03/M05 A3025 RMK AO2 T10271055
Loading
Personal Weather Stations






























Interactive Weather Map New forecast layout! Learn more

10-Day Weather Forecast

Advertisements
Track Severe Weather on mobile